createdAt,value
2019-01-18T00:00:45.300Z,99592.69
2019-01-18T00:03:17.369Z,99594.71
2019-01-18T00:05:49.397Z,99602.73
2019-01-18T00:08:21.431Z,99600.52
2019-01-18T00:10:53.356Z,99608.64
2019-01-18T00:13:25.402Z,99615.23
2019-01-18T00:15:57.363Z,99608.91
2019-01-18T00:18:29.791Z,99620.72
2019-01-18T00:21:01.857Z,99618.30
2019-01-18T00:23:33.921Z,99618.43
2019-01-18T00:26:05.945Z,99622.97
2019-01-18T00:28:37.890Z,99625.58
2019-01-18T00:31:09.827Z,99630.80
2019-01-18T00:33:41.801Z,99625.09
2019-01-18T00:36:13.732Z,99632.27
2019-01-18T00:38:45.759Z,99634.19
2019-01-18T00:41:17.780Z,99637.59
2019-01-18T00:43:49.753Z,99630.83
2019-01-18T00:46:21.692Z,99635.26
2019-01-18T00:48:53.663Z,99646.70
2019-01-18T00:51:25.619Z,99648.41
2019-01-18T00:53:57.620Z,99650.00
2019-01-18T00:56:29.570Z,99652.06
2019-01-18T00:59:03.156Z,99659.23
2019-01-18T01:01:35.085Z,99654.11
2019-01-18T01:04:07.054Z,99657.51
2019-01-18T01:06:39.135Z,99660.55
2019-01-18T01:09:11.139Z,99665.17
2019-01-18T01:11:43.098Z,99664.20
2019-01-18T01:14:15.137Z,99670.04
2019-01-18T01:16:47.061Z,99667.49
2019-01-18T01:19:19.016Z,99666.80
2019-01-18T01:21:50.974Z,99672.53
2019-01-18T01:24:23.007Z,99667.45
2019-01-18T01:26:55.105Z,99665.17
2019-01-18T01:29:27.095Z,99677.23
2019-01-18T01:31:59.104Z,99675.42
2019-01-18T01:34:31.090Z,99676.03
2019-01-18T01:37:03.035Z,99671.67
2019-01-18T01:39:34.993Z,99678.86
2019-01-18T01:42:07.039Z,99681.17
2019-01-18T01:44:39.083Z,99678.98
2019-01-18T01:47:11.042Z,99683.25
2019-01-18T01:49:42.978Z,99695.27
2019-01-18T01:52:15.182Z,99688.70
2019-01-18T01:54:50.761Z,99692.95
2019-01-18T01:57:22.688Z,99696.47
2019-01-18T01:59:54.669Z,99700.47
2019-01-18T02:02:26.604Z,99687.83
2019-01-18T02:04:58.573Z,99703.37
2019-01-18T02:07:30.526Z,99701.06
2019-01-18T02:10:02.658Z,99705.67
2019-01-18T02:12:35.258Z,99706.52
2019-01-18T02:15:09.012Z,99713.93
2019-01-18T02:17:40.992Z,99704.34
2019-01-18T02:20:15.059Z,99713.20
2019-01-18T02:22:47.067Z,99719.52
2019-01-18T02:25:19.092Z,99713.45
2019-01-18T02:27:51.171Z,99712.84
2019-01-18T02:30:25.714Z,99714.06
2019-01-18T02:32:57.717Z,99712.61
2019-01-18T02:35:29.659Z,99713.84
2019-01-18T02:38:01.617Z,99720.28
2019-01-18T02:40:33.595Z,99718.11
2019-01-18T02:43:05.522Z,99724.30
2019-01-18T02:45:37.489Z,99730.98
2019-01-18T02:48:09.492Z,99737.42
2019-01-18T02:50:41.469Z,99738.88
2019-01-18T02:53:13.537Z,99748.59
2019-01-18T02:55:45.510Z,99751.27
2019-01-18T02:58:17.548Z,99749.08
2019-01-18T03:00:49.546Z,99751.39
2019-01-18T03:03:21.495Z,99757.95
2019-01-18T03:05:53.491Z,99755.88
2019-01-18T03:08:26.487Z,99760.73
2019-01-18T03:10:58.446Z,99768.27
2019-01-18T03:13:30.439Z,99761.81
2019-01-18T03:16:02.397Z,99771.38
2019-01-18T03:18:34.326Z,99774.75
2019-01-18T03:21:06.391Z,99792.20
2019-01-18T03:23:39.481Z,99798.25
2019-01-18T03:26:11.548Z,99802.72
2019-01-18T03:28:43.555Z,99801.75
2019-01-18T03:31:16.618Z,99813.75
2019-01-18T03:33:48.590Z,99816.56
2019-01-18T03:36:20.569Z,99823.38
2019-01-18T03:38:52.554Z,99824.59
2019-01-18T03:41:24.618Z,99822.63
2019-01-18T03:43:56.618Z,99819.34
2019-01-18T03:46:28.593Z,99821.88
2019-01-18T03:49:00.521Z,99821.76
2019-01-18T03:51:32.487Z,99824.45
2019-01-18T03:54:04.457Z,99827.26
2019-01-18T03:56:36.433Z,99825.92
2019-01-18T03:59:08.367Z,99832.00
2019-01-18T04:01:40.355Z,99838.44
2019-01-18T04:04:12.306Z,99841.96
2019-01-18T04:06:44.266Z,99850.08
2019-01-18T04:09:16.194Z,99862.95
2019-01-18T04:11:48.150Z,99864.39
2019-01-18T04:14:20.101Z,99887.56
2019-01-18T04:16:52.077Z,99884.52
2019-01-18T04:19:24.038Z,99891.36
2019-01-18T04:21:55.998Z,99899.70
2019-01-18T04:24:28.405Z,99895.96
2019-01-18T04:27:00.432Z,99911.36
2019-01-18T04:29:32.386Z,99914.84
2019-01-18T04:32:04.381Z,99925.02
2019-01-18T04:34:36.318Z,99926.47
2019-01-18T04:37:08.282Z,99926.25
2019-01-18T04:39:40.265Z,99931.05
2019-01-18T04:42:12.406Z,99934.05
2019-01-18T04:44:44.460Z,99939.00
2019-01-18T04:47:16.425Z,99935.86
2019-01-18T04:49:48.371Z,99949.56
2019-01-18T04:52:20.347Z,99944.55
2019-01-18T04:54:52.307Z,99958.73
2019-01-18T04:57:24.415Z,99960.55
2019-01-18T04:59:56.358Z,99966.47
2019-01-18T05:02:28.471Z,99968.97
2019-01-18T05:05:00.537Z,99973.82
2019-01-18T05:07:33.047Z,99981.92
2019-01-18T05:10:09.740Z,99987.84
2019-01-18T05:12:41.687Z,99990.98
2019-01-18T05:15:16.224Z,99995.94
2019-01-18T05:17:48.338Z,100005.11
2019-01-18T05:20:21.424Z,100014.91
2019-01-18T05:22:53.363Z,100022.64
2019-01-18T05:25:25.439Z,100019.93
2019-01-18T05:27:57.492Z,100026.50
2019-01-18T05:30:30.435Z,100031.61
2019-01-18T05:33:02.500Z,100044.98
2019-01-18T05:35:34.449Z,100054.58
2019-01-18T05:38:06.499Z,100057.30
2019-01-18T05:40:38.763Z,100070.34
2019-01-18T05:43:10.845Z,100074.80
2019-01-18T05:45:42.885Z,100080.07
2019-01-18T05:48:14.834Z,100083.00
2019-01-18T05:50:46.772Z,100092.34
2019-01-18T05:53:19.013Z,100093.52
2019-01-18T05:55:51.026Z,100104.13
2019-01-18T05:58:22.967Z,100103.21
2019-01-18T06:01:05.997Z,100103.86
2019-01-18T06:03:37.973Z,100109.41
2019-01-18T06:06:10.667Z,100115.22
2019-01-18T06:08:42.644Z,100118.53
2019-01-18T06:11:14.702Z,100123.38
2019-01-18T06:13:46.736Z,100132.06
2019-01-18T06:16:18.723Z,100140.78
2019-01-18T06:18:50.665Z,100144.61
2019-01-18T06:21:22.673Z,100154.43
2019-01-18T06:23:54.665Z,100159.48
2019-01-18T06:26:26.757Z,100166.19
2019-01-18T06:28:58.932Z,100171.38
2019-01-18T06:31:30.911Z,100183.09
2019-01-18T06:34:02.876Z,100180.56
2019-01-18T06:36:34.857Z,100189.81
2019-01-18T06:39:08.220Z,100204.47
2019-01-18T06:41:46.403Z,100204.86
2019-01-18T06:44:18.367Z,100215.32
2019-01-18T06:46:50.417Z,100220.84
2019-01-18T06:49:22.359Z,100222.66
2019-01-18T06:51:54.356Z,100236.55
2019-01-18T06:54:26.368Z,100237.52
2019-01-18T06:56:58.413Z,100245.03
2019-01-18T06:59:30.401Z,100260.44
2019-01-18T07:02:02.451Z,100257.59
2019-01-18T07:04:40.781Z,100273.48
2019-01-18T07:07:08.806Z,100275.86
2019-01-18T07:09:40.818Z,100289.56
2019-01-18T07:12:12.784Z,100294.80
2019-01-18T07:14:44.753Z,100295.27
2019-01-18T07:17:16.731Z,100307.27
2019-01-18T07:19:48.769Z,100316.77
2019-01-18T07:22:20.812Z,100323.53
2019-01-18T07:24:52.771Z,100321.63
2019-01-18T07:27:24.798Z,100337.70
2019-01-18T07:29:56.785Z,100345.70
2019-01-18T07:32:29.033Z,100345.98
2019-01-18T07:35:01.157Z,100359.79
2019-01-18T07:37:33.278Z,100360.83
2019-01-18T07:40:06.306Z,100373.67
2019-01-18T07:42:38.364Z,100378.33
2019-01-18T07:45:14.702Z,100388.98
2019-01-18T07:47:46.666Z,100396.64
2019-01-18T07:50:20.143Z,100397.31
2019-01-18T07:52:52.636Z,100400.70
2019-01-18T07:55:24.595Z,100410.61
2019-01-18T07:57:56.578Z,100419.45
2019-01-18T08:00:29.853Z,100430.11
2019-01-18T08:03:01.835Z,100431.83
2019-01-18T08:05:33.895Z,100443.23
2019-01-18T08:08:05.888Z,100445.80
2019-01-18T08:10:37.900Z,100455.59
2019-01-18T08:13:09.899Z,100464.45
2019-01-18T08:15:41.919Z,100467.60
2019-01-18T08:18:13.952Z,100483.01
2019-01-18T08:20:45.915Z,100489.17
2019-01-18T08:23:17.871Z,100493.16
2019-01-18T08:25:49.815Z,100496.73
2019-01-18T08:28:22.077Z,100506.45
2019-01-18T08:30:54.040Z,100515.00
2019-01-18T08:33:26.050Z,100511.27
2019-01-18T08:35:58.000Z,100514.77
2019-01-18T08:38:29.975Z,100526.52
2019-01-18T08:41:01.957Z,100538.94
2019-01-18T08:43:33.934Z,100548.30
2019-01-18T08:46:08.455Z,100546.77
2019-01-18T08:48:40.449Z,100551.80
2019-01-18T09:14:28.185Z,100623.73
2019-01-18T09:17:00.260Z,100630.59
2019-01-18T09:19:32.254Z,100640.89
2019-01-18T09:22:04.371Z,100651.06
2019-01-18T09:24:36.381Z,100661.44
2019-01-18T09:27:08.326Z,100664.97
2019-01-18T09:29:40.321Z,100674.56
2019-01-18T09:32:12.582Z,100677.26
2019-01-18T09:34:44.527Z,100681.54
2019-01-18T09:37:16.546Z,100686.95
2019-01-18T09:39:48.530Z,100687.61
2019-01-18T09:42:20.560Z,100690.13
2019-01-18T09:44:52.560Z,100699.63
2019-01-18T09:47:24.531Z,100706.03
2019-01-18T09:49:56.486Z,100708.77
2019-01-18T09:52:28.445Z,100716.59
2019-01-18T09:55:00.396Z,100718.92
2019-01-18T09:57:32.563Z,100717.64
2019-01-18T10:00:06.342Z,100732.69
2019-01-18T10:02:38.402Z,100736.89
2019-01-18T10:05:11.129Z,100740.12
2019-01-18T10:07:44.198Z,100742.23
2019-01-18T10:10:17.710Z,100741.53
2019-01-18T10:12:49.902Z,100748.70
2019-01-18T10:15:27.681Z,100753.91
2019-01-18T10:18:00.738Z,100758.20
2019-01-18T10:20:33.062Z,100769.72
2019-01-18T10:23:05.034Z,100773.04
2019-01-18T10:25:37.075Z,100773.44
2019-01-18T10:28:09.250Z,100780.36
2019-01-18T10:30:41.232Z,100789.95
2019-01-18T10:33:13.204Z,100797.21
2019-01-18T10:35:45.264Z,100801.59
2019-01-18T10:38:17.226Z,100802.50
2019-01-18T10:40:49.236Z,100810.84
2019-01-18T10:43:21.239Z,100812.65
2019-01-18T10:45:53.220Z,100820.05
2019-01-18T10:48:25.166Z,100815.31
2019-01-18T10:50:57.126Z,100824.09
2019-01-18T10:53:29.096Z,100824.75
2019-01-18T10:56:01.050Z,100823.84
2019-01-18T10:58:33.050Z,100825.52
2019-01-18T11:01:05.027Z,100827.61
2019-01-18T11:03:36.988Z,100838.50
2019-01-18T11:06:08.959Z,100840.33
2019-01-18T11:08:40.937Z,100839.63
2019-01-18T11:11:12.959Z,100849.31
2019-01-18T11:13:44.965Z,100843.71
2019-01-18T11:16:16.943Z,100854.91
2019-01-18T11:18:48.880Z,100860.23
2019-01-18T11:21:22.664Z,100866.66
2019-01-18T11:23:54.595Z,100867.41
2019-01-18T11:26:26.588Z,100875.92
2019-01-18T11:29:00.154Z,100869.31
2019-01-18T11:31:32.115Z,100874.92
2019-01-18T11:34:04.273Z,100886.88
2019-01-18T11:36:36.249Z,100881.32
2019-01-18T11:39:08.662Z,100889.45
2019-01-18T11:41:40.918Z,100889.23
2019-01-18T11:44:12.931Z,100892.89
2019-01-18T11:46:44.906Z,100899.73
2019-01-18T11:49:16.868Z,100898.13
2019-01-18T11:51:48.902Z,100905.70
2019-01-18T11:54:20.891Z,100906.10
2019-01-18T11:56:52.863Z,100907.70
2019-01-18T11:59:24.821Z,100906.05
2019-01-18T12:01:56.790Z,100909.31
2019-01-18T12:04:28.774Z,100915.42
2019-01-18T12:07:00.876Z,100916.51
2019-01-18T12:09:32.917Z,100916.25
2019-01-18T12:12:04.945Z,100922.70
2019-01-18T12:14:36.838Z,100921.23
2019-01-18T12:17:08.878Z,100920.46
2019-01-18T12:19:40.827Z,100922.44
2019-01-18T12:22:12.839Z,100928.53
2019-01-18T12:24:44.789Z,100933.47
2019-01-18T12:27:16.809Z,100939.45
2019-01-18T12:29:48.766Z,100937.19
2019-01-18T12:32:20.740Z,100943.69
2019-01-18T12:34:52.704Z,100953.52
2019-01-18T12:37:24.779Z,100953.27
2019-01-18T12:39:56.759Z,100952.37
2019-01-18T12:42:28.846Z,100953.56
2019-01-18T12:45:01.277Z,100958.53
2019-01-18T12:47:33.520Z,100967.95
2019-01-18T12:50:07.513Z,100965.88
2019-01-18T12:52:39.525Z,100969.07
2019-01-18T12:55:11.477Z,100966.41
2019-01-18T12:57:43.469Z,100965.34
2019-01-18T13:00:17.219Z,100977.33
2019-01-18T13:02:49.209Z,100973.98
2019-01-18T13:05:30.263Z,100982.48
2019-01-18T13:08:02.260Z,100987.31
2019-01-18T13:10:34.330Z,100989.44
2019-01-18T13:13:06.386Z,100986.86
2019-01-18T13:15:59.197Z,100993.48
2019-01-18T13:18:31.747Z,100998.69
2019-01-18T13:21:03.769Z,101006.12
2019-01-18T13:23:35.782Z,101003.73
2019-01-18T13:26:07.798Z,101010.09
2019-01-18T13:28:39.777Z,101021.33
2019-01-18T13:31:11.749Z,101025.32
2019-01-18T13:33:43.749Z,101027.03
2019-01-18T13:36:16.186Z,101028.25
2019-01-18T13:38:48.171Z,101033.50
2019-01-18T13:41:20.217Z,101045.92
2019-01-18T13:43:52.225Z,101047.23
2019-01-18T13:46:24.191Z,101053.23
2019-01-18T13:48:56.145Z,101057.42
2019-01-18T13:51:28.086Z,101048.79
2019-01-18T13:54:00.050Z,101054.37
2019-01-18T13:56:32.052Z,101056.89
2019-01-18T13:59:04.032Z,101055.64
2019-01-18T14:01:36.000Z,101063.71
2019-01-18T14:04:08.011Z,101075.30
2019-01-18T14:06:40.152Z,101074.59
2019-01-18T14:09:12.209Z,101078.41
2019-01-18T14:11:44.164Z,101078.09
2019-01-18T14:14:18.609Z,101081.62
2019-01-18T14:16:50.585Z,101079.97
2019-01-18T14:19:22.571Z,101077.92
2019-01-18T14:21:54.525Z,101080.98
2019-01-18T14:24:26.502Z,101083.73
2019-01-18T14:26:58.462Z,101084.13
2019-01-18T14:29:30.447Z,101080.14
2019-01-18T14:32:02.427Z,101091.88
2019-01-18T14:34:34.411Z,101096.02
2019-01-18T14:37:06.405Z,101100.09
2019-01-18T14:39:39.556Z,101100.95
2019-01-18T14:42:11.513Z,101103.62
2019-01-18T14:44:43.487Z,101103.23
2019-01-18T14:47:15.444Z,101105.79
2019-01-18T14:49:47.584Z,101105.94
2019-01-18T14:52:19.947Z,101107.20
2019-01-18T14:54:51.922Z,101113.06
2019-01-18T14:57:23.935Z,101109.37
2019-01-18T14:59:55.969Z,101110.52
2019-01-18T15:02:28.024Z,101120.20
2019-01-18T15:05:00.049Z,101122.48
2019-01-18T15:07:32.064Z,101132.08
2019-01-18T15:10:05.855Z,101124.84
2019-01-18T15:12:37.810Z,101128.66
2019-01-18T15:15:11.878Z,101120.95
2019-01-18T15:17:44.048Z,101122.09
2019-01-18T15:20:21.454Z,101121.50
2019-01-18T15:22:53.478Z,101125.63
2019-01-18T15:25:25.553Z,101129.69
2019-01-18T15:27:57.593Z,101133.08
2019-01-18T15:30:30.723Z,101133.28
2019-01-18T15:33:08.807Z,101131.82
2019-01-18T15:35:40.017Z,101135.88
2019-01-18T15:38:12.862Z,101137.51
2019-01-18T15:40:47.655Z,101139.90
2019-01-18T15:43:21.917Z,101139.63
2019-01-18T15:45:54.984Z,101139.36
2019-01-18T15:48:26.941Z,101155.03
2019-01-18T15:50:59.002Z,101154.77
2019-01-18T15:53:31.033Z,101156.63
2019-01-18T15:56:03.139Z,101151.10
2019-01-18T15:58:35.552Z,101154.75
2019-01-18T16:01:09.061Z,101155.74
2019-01-18T16:03:41.241Z,101153.15
2019-01-18T16:06:13.380Z,101159.33
2019-01-18T16:08:45.508Z,101163.91
2019-01-18T16:11:27.591Z,101159.58
2019-01-18T16:13:59.772Z,101172.00
2019-01-18T16:16:39.739Z,101169.88
2019-01-18T16:19:11.907Z,101174.78
2019-01-18T16:21:43.975Z,101174.38
2019-01-18T16:24:16.024Z,101187.14
2019-01-18T16:26:48.045Z,101180.56
2019-01-18T16:29:20.041Z,101185.41
2019-01-18T16:31:52.465Z,101183.73
2019-01-18T16:34:24.595Z,101185.00
2019-01-18T16:36:56.588Z,101187.32
2019-01-18T16:39:28.833Z,101185.20
2019-01-18T16:42:00.957Z,101187.11
2019-01-18T16:44:32.978Z,101189.77
2019-01-18T16:47:05.412Z,101190.23
2019-01-18T16:49:37.420Z,101188.56
2019-01-18T16:52:09.475Z,101188.50
2019-01-18T16:54:41.497Z,101183.77
2019-01-18T16:57:13.528Z,101187.07
2019-01-18T16:59:45.479Z,101188.64
2019-01-18T17:02:17.480Z,101194.59
2019-01-18T17:04:49.533Z,101188.14
2019-01-18T17:07:21.603Z,101191.72
2019-01-18T17:09:53.562Z,101195.77
2019-01-18T17:12:25.590Z,101189.19
2019-01-18T17:14:57.605Z,101195.48
2019-01-18T17:17:29.666Z,101192.48
2019-01-18T17:20:01.634Z,101194.27
2019-01-18T17:22:33.810Z,101198.38
2019-01-18T17:25:06.439Z,101200.69
2019-01-18T17:27:38.528Z,101197.22
2019-01-18T17:30:13.589Z,101195.03
2019-01-18T17:32:45.575Z,101196.41
2019-01-18T17:35:24.147Z,101193.82
2019-01-18T17:38:13.159Z,101194.43
2019-01-18T17:40:55.408Z,101190.11
2019-01-18T17:44:10.329Z,101195.53
2019-01-18T17:47:17.860Z,101198.76
2019-01-18T17:50:31.070Z,101191.89
2019-01-18T17:53:56.581Z,101195.47
2019-01-18T17:57:15.186Z,101203.55
2019-01-18T18:00:40.546Z,101204.88
2019-01-18T18:03:43.609Z,101208.73
2019-01-18T18:06:45.457Z,101211.03
2019-01-18T18:09:26.880Z,101213.69
2019-01-18T18:12:37.595Z,101211.50
2019-01-18T18:16:02.764Z,101207.57
2019-01-18T18:19:03.664Z,101213.34
2019-01-18T18:22:24.430Z,101221.35
2019-01-18T18:25:28.366Z,101220.14
2019-01-18T18:28:20.342Z,101225.95
2019-01-18T18:31:24.511Z,101223.71
2019-01-18T18:34:46.732Z,101229.02
2019-01-18T18:37:51.192Z,101221.52
2019-01-18T18:41:10.439Z,101223.77
2019-01-18T18:44:04.646Z,101225.03
2019-01-18T18:47:17.956Z,101227.06
2019-01-18T18:50:26.601Z,101224.08
2019-01-18T18:53:44.381Z,101230.48
2019-01-18T18:57:16.274Z,101229.84
2019-01-18T19:00:05.447Z,101237.30
2019-01-18T19:03:24.688Z,101232.28
2019-01-18T19:06:27.033Z,101236.60
2019-01-18T19:09:22.040Z,101234.30
2019-01-18T19:12:46.971Z,101236.17
2019-01-18T19:15:50.270Z,101231.95
2019-01-18T19:18:48.987Z,101234.20
2019-01-18T19:22:01.413Z,101235.63
2019-01-18T19:25:29.339Z,101236.38
2019-01-18T19:28:40.651Z,101240.94
2019-01-18T19:31:47.681Z,101258.36
2019-01-18T19:34:44.452Z,101250.80
2019-01-18T19:38:05.843Z,101252.46
2019-01-18T19:41:05.832Z,101250.27
2019-01-18T19:44:39.996Z,101249.52
2019-01-18T19:47:39.485Z,101251.61
2019-01-18T19:50:43.308Z,101253.18
2019-01-18T19:53:39.501Z,101252.38
2019-01-18T19:56:42.075Z,101263.45
2019-01-18T19:59:43.572Z,101258.55
2019-01-18T20:03:02.220Z,101265.88
2019-01-18T20:05:56.020Z,101271.13
2019-01-18T20:08:39.981Z,101271.99
2019-01-18T20:11:44.895Z,101272.74
2019-01-18T20:15:04.841Z,101266.91
2019-01-18T20:18:23.026Z,101269.91
2019-01-18T20:21:08.369Z,101270.77
2019-01-18T20:24:07.363Z,101267.19
2019-01-18T20:27:06.489Z,101275.34
2019-01-18T20:30:23.618Z,101276.33
2019-01-18T20:33:27.827Z,101279.27
2019-01-18T20:36:31.745Z,101281.81
2019-01-18T20:39:41.640Z,101280.43
2019-01-18T20:42:48.129Z,101279.67
2019-01-18T20:45:46.414Z,101285.86
2019-01-18T20:48:44.393Z,101282.16
2019-01-18T20:51:57.678Z,101281.98
2019-01-18T20:55:22.488Z,101287.77
2019-01-18T20:58:30.417Z,101284.53
2019-01-18T21:01:48.071Z,101289.38
2019-01-18T21:04:53.450Z,101286.20
2019-01-18T21:08:12.503Z,101285.11
2019-01-18T21:11:27.865Z,101283.55
2019-01-18T21:14:44.994Z,101288.27
2019-01-18T21:17:47.293Z,101290.30
2019-01-18T21:20:59.400Z,101290.58
2019-01-18T21:24:11.432Z,101294.38
2019-01-18T21:27:30.304Z,101297.38
2019-01-18T21:30:30.166Z,101295.13
2019-01-18T21:34:04.747Z,101295.94
2019-01-18T21:37:33.800Z,101294.14
2019-01-18T21:40:43.071Z,101287.44
2019-01-18T21:44:11.011Z,101294.37
2019-01-18T21:47:06.081Z,101293.63
2019-01-18T21:50:12.071Z,101295.41
2019-01-18T21:53:18.367Z,101293.73
2019-01-18T21:56:25.979Z,101299.75
2019-01-18T21:59:27.903Z,101300.91
2019-01-18T22:03:02.497Z,101304.20
2019-01-18T22:06:10.426Z,101314.02
2019-01-18T22:09:20.417Z,101312.30
2019-01-18T22:12:44.701Z,101318.07
2019-01-18T22:16:00.836Z,101316.45
2019-01-18T22:18:57.558Z,101316.62
2019-01-18T22:22:01.348Z,101320.38
2019-01-18T22:25:12.260Z,101321.76
2019-01-18T22:28:28.768Z,101326.72
2019-01-18T22:31:39.498Z,101328.45
2019-01-18T22:34:24.991Z,101328.91
2019-01-18T22:37:27.560Z,101324.87
2019-01-18T22:40:48.177Z,101331.28
2019-01-18T22:43:54.171Z,101329.91
2019-01-18T22:47:19.187Z,101332.84
2019-01-18T22:50:19.283Z,101342.55
2019-01-18T22:53:27.140Z,101334.52
2019-01-18T22:56:39.547Z,101332.73
2019-01-18T22:59:48.311Z,101333.66
2019-01-18T23:02:38.547Z,101334.87
2019-01-18T23:05:45.765Z,101330.88
2019-01-18T23:09:02.269Z,101333.83
2019-01-18T23:12:13.301Z,101332.50
2019-01-18T23:15:34.601Z,101328.58
2019-01-18T23:18:20.141Z,101329.96
2019-01-18T23:21:15.254Z,101332.53
2019-01-18T23:24:22.193Z,101333.20
2019-01-18T23:27:38.338Z,101342.78
2019-01-18T23:30:29.153Z,101330.60
2019-01-18T23:33:45.595Z,101335.92
2019-01-18T23:36:39.906Z,101333.78
2019-01-18T23:39:36.768Z,101332.23
2019-01-18T23:42:35.568Z,101333.62
2019-01-18T23:45:58.408Z,101332.42
2019-01-18T23:49:13.765Z,101329.47
2019-01-18T23:52:44.781Z,101326.76
2019-01-18T23:55:50.046Z,101326.35
2019-01-18T23:59:00.674Z,101329.41
